createdAt,value
2023-05-30T00:03:40.000Z,100061.56
2023-05-30T00:07:52.541Z,100056.72
2023-05-30T00:12:05.731Z,100061.56
2023-05-30T00:16:21.041Z,100054.25
2023-05-30T00:20:35.167Z,100055.66
2023-05-30T00:24:47.666Z,100055.19
2023-05-30T00:29:00.206Z,100053.69
2023-05-30T00:33:14.445Z,100055.25
2023-05-30T00:37:27.730Z,100053.25
2023-05-30T00:41:40.163Z,100048.31
2023-05-30T00:45:55.309Z,100046.81
2023-05-30T00:50:09.611Z,100046.25
2023-05-30T00:54:23.705Z,100048.13
2023-05-30T00:58:37.606Z,100053.66
2023-05-30T01:02:51.621Z,100051.84
2023-05-30T01:07:06.090Z,100052.31
2023-05-30T01:11:36.496Z,100053.06
2023-05-30T01:15:56.300Z,100057.34
2023-05-30T01:20:21.889Z,100056.34
2023-05-30T01:24:46.518Z,100052.41
2023-05-30T01:29:04.227Z,100048.38
2023-05-30T01:33:18.862Z,100044.00
2023-05-30T01:37:33.586Z,100052.47
2023-05-30T01:42:03.217Z,100043.50
2023-05-30T01:46:38.509Z,100040.94
2023-05-30T01:50:52.334Z,100037.81
2023-05-30T01:55:07.501Z,100036.19
2023-05-30T01:59:21.884Z,100041.13
2023-05-30T02:03:34.497Z,100039.00
2023-05-30T02:07:46.977Z,100027.38
2023-05-30T02:12:00.419Z,100040.00
2023-05-30T02:16:14.751Z,100038.09
2023-05-30T02:20:27.547Z,100035.03
2023-05-30T02:24:40.115Z,100039.91
2023-05-30T02:28:52.724Z,100042.44
2023-05-30T02:33:05.466Z,100043.72
2023-05-30T02:37:17.958Z,100053.00
2023-05-30T02:41:30.391Z,100058.81
2023-05-30T02:45:42.900Z,100046.03
2023-05-30T02:49:55.378Z,100049.44
2023-05-30T02:54:08.152Z,100052.38
2023-05-30T02:58:49.589Z,100059.19
2023-05-30T03:03:20.580Z,100072.19
2023-05-30T03:07:36.937Z,100069.03
2023-05-30T03:11:50.563Z,100070.63
2023-05-30T03:16:03.203Z,100065.00
2023-05-30T03:20:17.411Z,100066.91
2023-05-30T03:24:31.074Z,100075.72
2023-05-30T03:28:43.974Z,100077.72
2023-05-30T03:33:08.211Z,100087.75
2023-05-30T03:37:21.736Z,100094.41
2023-05-30T03:41:34.300Z,100078.56
2023-05-30T03:45:46.959Z,100087.56
2023-05-30T03:50:01.187Z,100089.34
2023-05-30T03:54:13.724Z,100083.88
2023-05-30T03:58:26.300Z,100089.19
2023-05-30T04:02:42.359Z,100085.56
2023-05-30T04:06:55.165Z,100095.16
2023-05-30T04:11:09.568Z,100093.41
2023-05-30T04:15:22.005Z,100096.56
2023-05-30T04:19:35.643Z,100112.31
2023-05-30T04:23:48.630Z,100104.03
2023-05-30T04:28:01.248Z,100100.56
2023-05-30T04:32:14.224Z,100092.63
2023-05-30T04:36:28.695Z,100095.53
2023-05-30T04:40:41.083Z,100098.34
2023-05-30T04:44:54.881Z,100101.81
2023-05-30T04:49:07.741Z,100100.16
2023-05-30T04:53:22.759Z,100093.34
2023-05-30T04:57:38.488Z,100101.97
2023-05-30T05:01:51.230Z,100101.69
2023-05-30T05:06:03.907Z,100114.59
2023-05-30T05:10:16.455Z,100108.66
2023-05-30T05:14:29.066Z,100117.91
2023-05-30T05:18:41.611Z,100109.72
2023-05-30T05:22:55.751Z,100113.38
2023-05-30T05:27:08.396Z,100123.44
2023-05-30T05:31:21.073Z,100115.88
2023-05-30T05:35:33.634Z,100128.81
2023-05-30T05:39:46.152Z,100127.25
2023-05-30T05:43:58.663Z,100125.47
2023-05-30T05:48:11.327Z,100130.69
2023-05-30T05:52:23.859Z,100131.31
2023-05-30T05:56:37.529Z,100138.81
2023-05-30T06:00:50.002Z,100135.03
2023-05-30T06:05:02.667Z,100147.41
2023-05-30T06:09:15.452Z,100147.72
2023-05-30T06:13:28.031Z,100151.34
2023-05-30T06:17:40.598Z,100157.16
2023-05-30T06:21:53.309Z,100164.31
2023-05-30T06:26:06.478Z,100156.56
2023-05-30T06:30:20.718Z,100155.50
2023-05-30T06:34:33.261Z,100155.06
2023-05-30T06:38:46.430Z,100163.22
2023-05-30T06:42:59.684Z,100163.69
2023-05-30T06:47:12.340Z,100153.03
2023-05-30T06:51:24.970Z,100158.63
2023-05-30T06:55:37.521Z,100158.13
2023-05-30T06:59:49.969Z,100163.34
2023-05-30T07:04:02.450Z,100155.66
2023-05-30T07:08:14.868Z,100158.19
2023-05-30T07:12:28.428Z,100162.19
2023-05-30T07:16:40.840Z,100166.19
2023-05-30T07:20:53.508Z,100174.72
2023-05-30T07:25:07.822Z,100166.28
2023-05-30T07:29:20.209Z,100174.66
2023-05-30T07:33:32.618Z,100168.50
2023-05-30T07:37:46.574Z,100177.13
2023-05-30T07:41:58.933Z,100176.88
2023-05-30T07:46:11.601Z,100173.50
2023-05-30T07:50:24.137Z,100167.34
2023-05-30T07:54:36.618Z,100175.16
2023-05-30T07:58:50.163Z,100167.41
2023-05-30T08:03:02.578Z,100161.53
2023-05-30T08:07:15.226Z,100169.13
2023-05-30T08:11:27.705Z,100169.84
2023-05-30T08:15:40.519Z,100163.41
2023-05-30T08:19:57.359Z,100163.81
2023-05-30T08:24:09.844Z,100156.63
2023-05-30T08:28:23.124Z,100160.44
2023-05-30T08:32:35.941Z,100152.94
2023-05-30T08:36:48.488Z,100156.34
2023-05-30T08:41:01.299Z,100160.19
2023-05-30T08:45:13.852Z,100158.97
2023-05-30T08:49:26.780Z,100157.16
2023-05-30T08:53:44.353Z,100143.75
2023-05-30T08:58:05.978Z,100164.53
2023-05-30T09:02:20.998Z,100149.53
2023-05-30T09:06:36.813Z,100153.00
2023-05-30T09:10:50.555Z,100157.44
2023-05-30T09:15:03.194Z,100159.22
2023-05-30T09:19:16.326Z,100151.19
2023-05-30T09:23:30.541Z,100142.25
2023-05-30T09:27:48.363Z,100148.06
2023-05-30T09:32:01.027Z,100136.19
2023-05-30T09:36:21.547Z,100136.56
2023-05-30T09:40:34.005Z,100118.03
2023-05-30T09:44:55.852Z,100116.88
2023-05-30T09:49:13.547Z,100121.31
2023-05-30T09:53:33.648Z,100107.63
2023-05-30T09:57:51.300Z,100105.75
2023-05-30T10:02:03.879Z,100103.53
2023-05-30T10:06:17.326Z,100095.81
2023-05-30T10:10:31.842Z,100086.63
2023-05-30T10:14:45.189Z,100083.41
2023-05-30T10:19:01.154Z,100085.03
2023-05-30T10:23:15.111Z,100097.09
2023-05-30T10:27:33.039Z,100105.94
2023-05-30T10:31:46.342Z,100097.75
2023-05-30T10:35:59.497Z,100105.59
2023-05-30T10:40:33.683Z,100123.13
2023-05-30T10:45:12.057Z,100133.50
2023-05-30T10:49:29.992Z,100127.31
2023-05-30T10:53:44.882Z,100128.50
2023-05-30T10:57:57.532Z,100124.78
2023-05-30T11:02:10.183Z,100119.97
2023-05-30T11:06:22.650Z,100119.00
2023-05-30T11:10:35.106Z,100128.06
2023-05-30T11:14:56.647Z,100115.13
2023-05-30T11:19:12.775Z,100104.66
2023-05-30T11:23:26.156Z,100096.41
2023-05-30T11:27:38.752Z,100093.41
2023-05-30T11:31:54.655Z,100073.81
2023-05-30T11:36:10.515Z,100081.25
2023-05-30T11:40:23.595Z,100080.63
2023-05-30T11:44:36.244Z,100079.69
2023-05-30T11:48:48.728Z,100094.78
2023-05-30T11:53:01.448Z,100102.19
2023-05-30T11:57:18.444Z,100117.75
2023-05-30T12:01:31.287Z,100128.97
2023-05-30T12:05:45.175Z,100141.72
2023-05-30T12:09:57.893Z,100143.00
2023-05-30T12:14:10.467Z,100146.44
2023-05-30T12:18:23.006Z,100152.28
2023-05-30T12:22:36.269Z,100151.66
2023-05-30T12:26:50.033Z,100142.63
2023-05-30T12:31:03.406Z,100139.28
2023-05-30T12:35:20.031Z,100159.13
2023-05-30T12:39:34.066Z,100156.91
2023-05-30T12:43:46.495Z,100152.41
2023-05-30T12:47:59.118Z,100144.28
2023-05-30T12:52:15.608Z,100145.41
2023-05-30T12:56:29.631Z,100173.56
2023-05-30T13:00:42.162Z,100194.28
2023-05-30T13:04:55.609Z,100192.84
2023-05-30T13:09:08.122Z,100201.25
2023-05-30T13:13:20.781Z,100217.47
2023-05-30T13:17:33.330Z,100225.31
2023-05-30T13:21:46.065Z,100224.25
2023-05-30T13:25:58.596Z,100227.53
2023-05-30T13:30:13.623Z,100211.59
2023-05-30T13:34:26.451Z,100198.66
2023-05-30T13:38:40.747Z,100198.28
2023-05-30T13:42:53.276Z,100194.56
2023-05-30T13:47:08.457Z,100193.69
2023-05-30T13:51:22.055Z,100183.81
2023-05-30T13:55:34.711Z,100178.97
2023-05-30T13:59:47.453Z,100163.94
2023-05-30T14:04:01.189Z,100160.78
2023-05-30T14:08:13.820Z,100154.16
2023-05-30T14:12:26.615Z,100148.91
2023-05-30T14:16:39.061Z,100150.94
2023-05-30T14:20:52.005Z,100163.53
2023-05-30T14:25:05.328Z,100160.59
2023-05-30T14:29:17.837Z,100157.53
2023-05-30T14:33:30.207Z,100159.66
2023-05-30T14:37:42.692Z,100158.25
2023-05-30T14:41:56.099Z,100156.31
2023-05-30T14:46:08.787Z,100154.16
2023-05-30T14:50:22.665Z,100153.34
2023-05-30T14:54:35.150Z,100145.28
2023-05-30T14:58:47.601Z,100137.97
2023-05-30T15:03:00.607Z,100127.38
2023-05-30T15:07:13.677Z,100126.06
2023-05-30T15:11:27.066Z,100119.66
2023-05-30T15:15:39.549Z,100120.09
2023-05-30T15:19:52.120Z,100113.38
2023-05-30T15:24:04.862Z,100111.00
2023-05-30T15:28:17.388Z,100110.44
2023-05-30T15:32:29.793Z,100124.41
2023-05-30T15:36:42.545Z,100119.66
2023-05-30T15:40:56.472Z,100123.19
2023-05-30T15:45:09.863Z,100114.94
2023-05-30T15:49:22.247Z,100119.75
2023-05-30T15:53:34.679Z,100123.97
2023-05-30T15:57:47.172Z,100131.16
2023-05-30T16:02:01.455Z,100130.13
2023-05-30T16:06:13.943Z,100138.84
2023-05-30T16:10:26.466Z,100150.66
2023-05-30T16:14:38.919Z,100156.88
2023-05-30T16:18:51.366Z,100165.13
2023-05-30T16:23:03.768Z,100167.31
2023-05-30T16:27:17.332Z,100160.97
2023-05-30T16:31:30.451Z,100178.13
2023-05-30T16:35:43.047Z,100171.84
2023-05-30T16:39:55.539Z,100174.81
2023-05-30T16:44:08.405Z,100179.47
2023-05-30T16:48:20.917Z,100180.31
2023-05-30T16:52:33.564Z,100177.38
2023-05-30T16:56:46.472Z,100179.41
2023-05-30T17:00:59.194Z,100187.00
2023-05-30T17:05:12.235Z,100186.16
2023-05-30T17:09:24.663Z,100195.16
2023-05-30T17:13:37.142Z,100198.59
2023-05-30T17:17:53.416Z,100208.84
2023-05-30T17:22:06.231Z,100204.78
2023-05-30T17:26:18.645Z,100217.53
2023-05-30T17:30:31.072Z,100225.41
2023-05-30T17:34:43.519Z,100225.09
2023-05-30T17:38:55.955Z,100223.94
2023-05-30T17:43:08.516Z,100233.19
2023-05-30T17:47:21.114Z,100232.06
2023-05-30T17:51:33.932Z,100240.34
2023-05-30T17:55:46.600Z,100239.50
2023-05-30T17:59:59.320Z,100234.75
2023-05-30T18:04:11.906Z,100233.69
2023-05-30T18:08:24.433Z,100227.31
2023-05-30T18:12:36.878Z,100223.03
2023-05-30T18:16:50.045Z,100234.16
2023-05-30T18:21:04.915Z,100237.81
2023-05-30T18:25:17.535Z,100245.25
2023-05-30T18:29:30.462Z,100245.72
2023-05-30T18:33:42.943Z,100240.50
2023-05-30T18:37:55.441Z,100247.06
2023-05-30T18:42:08.584Z,100249.53
2023-05-30T18:46:22.401Z,100256.03
2023-05-30T18:50:34.826Z,100257.72
2023-05-30T18:54:47.301Z,100263.72
2023-05-30T18:59:00.382Z,100273.16
2023-05-30T19:03:12.970Z,100274.41
2023-05-30T19:07:26.264Z,100279.81
2023-05-30T19:11:38.693Z,100282.44
2023-05-30T19:15:51.927Z,100286.44
2023-05-30T19:20:04.593Z,100289.19
2023-05-30T19:24:17.058Z,100295.00
2023-05-30T19:28:31.745Z,100295.50
2023-05-30T19:32:44.188Z,100294.13
2023-05-30T19:36:57.384Z,100303.88
2023-05-30T19:41:09.945Z,100301.53
2023-05-30T19:45:22.654Z,100310.63
2023-05-30T19:49:36.277Z,100310.47
2023-05-30T19:53:48.771Z,100309.81
2023-05-30T19:58:01.355Z,100306.13
2023-05-30T20:02:13.962Z,100309.97
2023-05-30T20:06:31.122Z,100313.19
2023-05-30T20:10:43.625Z,100314.19
2023-05-30T20:14:56.128Z,100306.13
2023-05-30T20:19:08.614Z,100314.09
2023-05-30T20:23:21.311Z,100309.16
2023-05-30T20:27:38.631Z,100314.69
2023-05-30T20:31:51.199Z,100315.59
2023-05-30T20:36:03.674Z,100311.16
2023-05-30T20:40:16.178Z,100308.97
2023-05-30T20:44:28.673Z,100307.44
2023-05-30T20:48:41.107Z,100304.09
2023-05-30T20:52:53.718Z,100308.09
2023-05-30T20:57:20.983Z,100304.31
2023-05-30T21:01:37.295Z,100312.75
2023-05-30T21:05:53.313Z,100311.84
2023-05-30T21:10:07.041Z,100312.81
2023-05-30T21:14:19.582Z,100320.63
2023-05-30T21:18:34.503Z,100310.66
2023-05-30T21:22:47.043Z,100319.06
2023-05-30T21:26:59.728Z,100322.38
2023-05-30T21:31:12.279Z,100321.75
2023-05-30T21:35:24.963Z,100315.81
2023-05-30T21:39:37.509Z,100313.34
2023-05-30T21:43:50.009Z,100314.94
2023-05-30T21:48:02.783Z,100314.41
2023-05-30T21:52:15.361Z,100320.56
2023-05-30T21:56:27.899Z,100318.88
2023-05-30T22:00:42.339Z,100319.78
2023-05-30T22:05:00.534Z,100322.19
2023-05-30T22:09:13.029Z,100324.38
2023-05-30T22:14:30.372Z,100311.69
2023-05-30T22:18:43.097Z,100326.28
2023-05-30T22:22:55.828Z,100326.41
2023-05-30T22:27:11.266Z,100313.59
2023-05-30T22:31:24.005Z,100322.50
2023-05-30T22:35:36.724Z,100315.97
2023-05-30T22:39:49.803Z,100326.69
2023-05-30T22:44:08.455Z,100331.19
2023-05-30T22:48:21.482Z,100325.31
2023-05-30T22:52:34.052Z,100322.44
2023-05-30T22:56:46.619Z,100316.47
2023-05-30T23:00:59.328Z,100315.34
2023-05-30T23:05:12.348Z,100317.59
2023-05-30T23:09:25.120Z,100318.28
2023-05-30T23:13:37.772Z,100309.56
2023-05-30T23:17:50.419Z,100312.88
2023-05-30T23:22:03.234Z,100309.84
2023-05-30T23:26:15.907Z,100305.16
2023-05-30T23:30:28.736Z,100312.75
2023-05-30T23:34:41.675Z,100301.19
2023-05-30T23:38:54.269Z,100299.47
2023-05-30T23:43:06.771Z,100303.41
2023-05-30T23:47:19.456Z,100306.47
2023-05-30T23:51:32.530Z,100294.53
2023-05-30T23:55:45.326Z,100303.66
